sensor_id;sensor_type;location;lat;lon;timestamp;pressure;altitude;pressure_sealevel;temperature;humidity
25350;BME280;13302;48.796;11.978;2023-05-25T00:02:31;97188.63;;;15.06;30.13
25350;BME280;13302;48.796;11.978;2023-05-25T00:05:19;97187.13;;;15.09;30.18
25350;BME280;13302;48.796;11.978;2023-05-25T00:08:06;97193.50;;;15.09;30.33
25350;BME280;13302;48.796;11.978;2023-05-25T00:10:54;97203.81;;;15.09;30.54
25350;BME280;13302;48.796;11.978;2023-05-25T00:13:41;97195.47;;;15.09;30.52
25350;BME280;13302;48.796;11.978;2023-05-25T00:16:28;97194.66;;;15.08;30.91
25350;BME280;13302;48.796;11.978;2023-05-25T00:19:15;97202.66;;;15.10;30.77
25350;BME280;13302;48.796;11.978;2023-05-25T00:22:04;97204.22;;;15.11;30.53
25350;BME280;13302;48.796;11.978;2023-05-25T00:24:51;97202.25;;;15.11;30.83
25350;BME280;13302;48.796;11.978;2023-05-25T00:27:38;97202.25;;;15.11;30.70
25350;BME280;13302;48.796;11.978;2023-05-25T00:30:25;97198.31;;;15.12;30.64
25350;BME280;13302;48.796;11.978;2023-05-25T00:33:12;97207.47;;;15.13;30.67
25350;BME280;13302;48.796;11.978;2023-05-25T00:35:59;97206.66;;;15.12;30.83
25350;BME280;13302;48.796;11.978;2023-05-25T00:38:46;97191.13;;;15.11;31.02
25350;BME280;13302;48.796;11.978;2023-05-25T00:41:33;97187.16;;;15.12;30.64
25350;BME280;13302;48.796;11.978;2023-05-25T00:44:27;97195.47;;;15.09;30.81
25350;BME280;13302;48.796;11.978;2023-05-25T00:47:15;97189.50;;;15.10;30.66
25350;BME280;13302;48.796;11.978;2023-05-25T00:50:07;97187.06;;;15.05;30.82
25350;BME280;13302;48.796;11.978;2023-05-25T00:52:54;97187.06;;;15.05;31.09
25350;BME280;13302;48.796;11.978;2023-05-25T00:55:50;97187.06;;;15.05;31.12
25350;BME280;13302;48.796;11.978;2023-05-25T00:58:39;97194.97;;;15.03;31.32
25350;BME280;13302;48.796;11.978;2023-05-25T01:01:34;97200.47;;;15.00;31.36
25350;BME280;13302;48.796;11.978;2023-05-25T01:04:26;97199.66;;;14.99;31.24
25350;BME280;13302;48.796;11.978;2023-05-25T01:07:17;97199.25;;;14.97;31.14
25350;BME280;13302;48.796;11.978;2023-05-25T01:10:08;97196.06;;;14.99;31.06
25350;BME280;13302;48.796;11.978;2023-05-25T01:12:58;97194.09;;;14.99;31.35
25350;BME280;13302;48.796;11.978;2023-05-25T01:15:46;97206.50;;;15.02;31.58
25350;BME280;13302;48.796;11.978;2023-05-25T01:18:33;97207.72;;;15.04;31.20
25350;BME280;13302;48.796;11.978;2023-05-25T01:21:27;97211.31;;;15.05;31.22
25350;BME280;13302;48.796;11.978;2023-05-25T01:24:21;97209.75;;;15.07;31.32
25350;BME280;13302;48.796;11.978;2023-05-25T01:30:09;97211.78;;;15.10;31.30
25350;BME280;13302;48.796;11.978;2023-05-25T01:32:59;97205.50;;;15.13;31.49
25350;BME280;13302;48.796;11.978;2023-05-25T01:35:47;97199.53;;;15.15;31.62
25350;BME280;13302;48.796;11.978;2023-05-25T01:38:35;97203.13;;;15.15;31.37
25350;BME280;13302;48.796;11.978;2023-05-25T01:41:23;97200.78;;;15.17;31.33
25350;BME280;13302;48.796;11.978;2023-05-25T01:44:10;97194.41;;;15.17;31.55
25350;BME280;13302;48.796;11.978;2023-05-25T01:47:11;97190.81;;;15.16;31.30
25350;BME280;13302;48.796;11.978;2023-05-25T01:50:09;97190.44;;;15.18;31.70
25350;BME280;13302;48.796;11.978;2023-05-25T01:53:05;97191.22;;;15.18;31.54
25350;BME280;13302;48.796;11.978;2023-05-25T01:55:59;97181.28;;;15.17;31.67
25350;BME280;13302;48.796;11.978;2023-05-25T01:58:50;97182.50;;;15.20;31.50
25350;BME280;13302;48.796;11.978;2023-05-25T02:01:39;97179.72;;;15.20;31.48
25350;BME280;13302;48.796;11.978;2023-05-25T02:04:28;97178.56;;;15.21;31.76
25350;BME280;13302;48.796;11.978;2023-05-25T02:07:15;97180.16;;;15.22;31.76
25350;BME280;13302;48.796;11.978;2023-05-25T02:10:03;97174.97;;;15.21;31.72
25350;BME280;13302;48.796;11.978;2023-05-25T02:12:51;97176.53;;;15.18;31.88
25350;BME280;13302;48.796;11.978;2023-05-25T02:15:38;97174.09;;;15.16;31.64
25350;BME280;13302;48.796;11.978;2023-05-25T02:18:26;97170.50;;;15.16;32.26
25350;BME280;13302;48.796;11.978;2023-05-25T02:21:13;97176.06;;;15.16;31.76
25350;BME280;13302;48.796;11.978;2023-05-25T02:24:00;97170.50;;;15.16;32.22
25350;BME280;13302;48.796;11.978;2023-05-25T02:26:47;97181.66;;;15.16;31.97
25350;BME280;13302;48.796;11.978;2023-05-25T02:29:34;97182.47;;;15.16;32.44
25350;BME280;13302;48.796;11.978;2023-05-25T02:32:21;97186.06;;;15.17;32.29
25350;BME280;13302;48.796;11.978;2023-05-25T02:35:09;97184.06;;;15.17;32.57
25350;BME280;13302;48.796;11.978;2023-05-25T02:37:57;97185.66;;;15.18;32.29
25350;BME280;13302;48.796;11.978;2023-05-25T02:40:44;97182.88;;;15.18;32.39
25350;BME280;13302;48.796;11.978;2023-05-25T02:43:32;97183.69;;;15.19;32.24
25350;BME280;13302;48.796;11.978;2023-05-25T02:46:19;97188.09;;;15.20;32.57
25350;BME280;13302;48.796;11.978;2023-05-25T02:49:06;97192.09;;;15.23;32.24
25350;BME280;13302;48.796;11.978;2023-05-25T02:51:55;97193.28;;;15.22;32.68
25350;BME280;13302;48.796;11.978;2023-05-25T02:54:42;97192.53;;;15.25;32.42
25350;BME280;13302;48.796;11.978;2023-05-25T02:57:35;97196.50;;;15.24;32.57
25350;BME280;13302;48.796;11.978;2023-05-25T03:00:26;97202.06;;;15.24;32.63
25350;BME280;13302;48.796;11.978;2023-05-25T03:03:13;97194.50;;;15.24;32.62
25350;BME280;13302;48.796;11.978;2023-05-25T03:06:00;97200.06;;;15.24;32.37
25350;BME280;13302;48.796;11.978;2023-05-25T03:08:49;97188.13;;;15.24;32.63
25350;BME280;13302;48.796;11.978;2023-05-25T03:11:37;97188.13;;;15.24;32.81
25350;BME280;13302;48.796;11.978;2023-05-25T03:14:24;97186.50;;;15.23;32.82
25350;BME280;13302;48.796;11.978;2023-05-25T03:17:15;97181.34;;;15.21;32.64
25350;BME280;13302;48.796;11.978;2023-05-25T03:20:03;97188.44;;;15.18;32.69
25350;BME280;13302;48.796;11.978;2023-05-25T03:22:52;97185.59;;;15.15;32.76
25350;BME280;13302;48.796;11.978;2023-05-25T03:25:41;97194.34;;;15.13;33.09
25350;BME280;13302;48.796;11.978;2023-05-25T03:28:29;97191.94;;;15.12;32.96
25350;BME280;13302;48.796;11.978;2023-05-25T03:31:17;97191.13;;;15.11;32.90
25350;BME280;13302;48.796;11.978;2023-05-25T03:34:07;97195.88;;;15.11;33.20
25350;BME280;13302;48.796;11.978;2023-05-25T03:36:56;97207.81;;;15.11;33.19
25350;BME280;13302;48.796;11.978;2023-05-25T03:39:44;97200.66;;;15.10;32.92
25350;BME280;13302;48.796;11.978;2023-05-25T03:42:31;97207.03;;;15.11;33.00
25350;BME280;13302;48.796;11.978;2023-05-25T03:45:19;97197.44;;;15.08;33.17
25350;BME280;13302;48.796;11.978;2023-05-25T03:48:09;97207.34;;;15.06;33.06
25350;BME280;13302;48.796;11.978;2023-05-25T03:50:56;97206.91;;;15.04;33.03
25350;BME280;13302;48.796;11.978;2023-05-25T03:53:43;97210.44;;;15.01;33.13
25350;BME280;13302;48.796;11.978;2023-05-25T03:56:30;97219.16;;;14.99;33.46
25350;BME280;13302;48.796;11.978;2023-05-25T03:59:17;97213.16;;;14.97;33.24
25350;BME280;13302;48.796;11.978;2023-05-25T04:02:06;97218.28;;;14.95;33.22
25350;BME280;13302;48.796;11.978;2023-05-25T04:04:53;97221.88;;;14.96;33.27
25350;BME280;13302;48.796;11.978;2023-05-25T04:07:40;97218.66;;;14.94;33.70
25350;BME280;13302;48.796;11.978;2023-05-25T04:10:27;97229.38;;;14.92;33.40
25350;BME280;13302;48.796;11.978;2023-05-25T04:13:14;97236.06;;;14.91;33.61
25350;BME280;13302;48.796;11.978;2023-05-25T04:16:01;97227.31;;;14.89;33.70
25350;BME280;13302;48.796;11.978;2023-05-25T04:18:50;97228.47;;;14.88;33.50
25350;BME280;13302;48.796;11.978;2023-05-25T04:21:38;97224.88;;;14.87;33.77
25350;BME280;13302;48.796;11.978;2023-05-25T04:24:26;97233.59;;;14.86;33.96
25350;BME280;13302;48.796;11.978;2023-05-25T04:27:14;97240.78;;;14.87;33.98
25350;BME280;13302;48.796;11.978;2023-05-25T04:30:02;97229.22;;;14.85;33.49
25350;BME280;13302;48.796;11.978;2023-05-25T04:33:24;97229.56;;;14.83;33.77
25350;BME280;13302;48.796;11.978;2023-05-25T04:36:23;97229.16;;;14.81;33.84
25350;BME280;13302;48.796;11.978;2023-05-25T04:39:10;97224.31;;;14.78;34.20
25350;BME280;13302;48.796;11.978;2023-05-25T04:42:02;97226.22;;;14.74;34.15
25350;BME280;13302;48.796;11.978;2023-05-25T04:44:52;97225.81;;;14.72;34.33
25350;BME280;13302;48.796;11.978;2023-05-25T04:47:42;97228.94;;;14.70;34.51
25350;BME280;13302;48.796;11.978;2023-05-25T04:50:30;97231.72;;;14.70;34.08
25350;BME280;13302;48.796;11.978;2023-05-25T04:53:17;97230.09;;;14.69;34.18
25350;BME280;13302;48.796;11.978;2023-05-25T04:56:04;97230.50;;;14.68;34.59
25350;BME280;13302;48.796;11.978;2023-05-25T04:58:52;97220.25;;;14.72;34.29
25350;BME280;13302;48.796;11.978;2023-05-25T05:01:39;97227.41;;;14.73;34.59
25350;BME280;13302;48.796;11.978;2023-05-25T05:04:30;97233.06;;;14.77;34.46
25350;BME280;13302;48.796;11.978;2023-05-25T05:07:18;97230.69;;;14.79;34.44
25350;BME280;13302;48.796;11.978;2023-05-25T05:10:07;97231.94;;;14.81;34.11
25350;BME280;13302;48.796;11.978;2023-05-25T05:12:56;97231.19;;;14.84;34.37
25350;BME280;13302;48.796;11.978;2023-05-25T05:15:44;97229.28;;;14.88;34.22
25350;BME280;13302;48.796;11.978;2023-05-25T05:18:32;97235.25;;;14.90;34.71
25350;BME280;13302;48.796;11.978;2023-05-25T05:21:19;97235.34;;;14.94;34.40
25350;BME280;13302;48.796;11.978;2023-05-25T05:24:09;97240.63;;;14.99;34.10
25350;BME280;13302;48.796;11.978;2023-05-25T05:26:56;97243.47;;;15.02;34.18
25350;BME280;13302;48.796;11.978;2023-05-25T05:30:04;97237.97;;;15.06;34.31
25350;BME280;13302;48.796;11.978;2023-05-25T05:32:52;97245.19;;;15.10;33.95
25350;BME280;13302;48.796;11.978;2023-05-25T05:35:40;97237.72;;;15.14;33.94
25350;BME280;13302;48.796;11.978;2023-05-25T05:38:31;97254.50;;;15.18;33.98
25350;BME280;13302;48.796;11.978;2023-05-25T05:41:19;97256.53;;;15.21;34.05
25350;BME280;13302;48.796;11.978;2023-05-25T05:44:08;97255.78;;;15.24;34.24
25350;BME280;13302;48.796;11.978;2023-05-25T05:46:56;97263.84;;;15.29;34.13
25350;BME280;13302;48.796;11.978;2023-05-25T05:49:47;97275.41;;;15.31;34.05
25350;BME280;13302;48.796;11.978;2023-05-25T05:52:35;97260.75;;;15.34;34.08
25350;BME280;13302;48.796;11.978;2023-05-25T05:55:23;97264.75;;;15.37;34.07
25350;BME280;13302;48.796;11.978;2023-05-25T05:58:11;97260.41;;;15.39;33.77
25350;BME280;13302;48.796;11.978;2023-05-25T06:00:58;97268.84;;;15.43;34.11
25350;BME280;13302;48.796;11.978;2023-05-25T06:03:47;97275.28;;;15.47;33.92
25350;BME280;13302;48.796;11.978;2023-05-25T06:06:34;97272.09;;;15.48;34.05
25350;BME280;13302;48.796;11.978;2023-05-25T06:09:21;97268.19;;;15.53;33.64
25350;BME280;13302;48.796;11.978;2023-05-25T06:12:08;97266.63;;;15.55;33.94
25350;BME280;13302;48.796;11.978;2023-05-25T06:14:55;97273.81;;;15.56;33.97
25350;BME280;13302;48.796;11.978;2023-05-25T06:17:43;97280.25;;;15.60;33.57
25350;BME280;13302;48.796;11.978;2023-05-25T06:20:30;97281.06;;;15.61;33.82
25350;BME280;13302;48.796;11.978;2023-05-25T06:23:17;97283.03;;;15.60;33.86
25350;BME280;13302;48.796;11.978;2023-05-25T06:26:04;97271.53;;;15.62;33.50
25350;BME280;13302;48.796;11.978;2023-05-25T06:28:51;97282.69;;;15.62;33.56
25350;BME280;13302;48.796;11.978;2023-05-25T06:31:39;97283.50;;;15.62;33.88
25350;BME280;13302;48.796;11.978;2023-05-25T06:34:26;97275.53;;;15.64;33.71
25350;BME280;13302;48.796;11.978;2023-05-25T06:37:13;97281.16;;;15.68;33.89
25350;BME280;13302;48.796;11.978;2023-05-25T06:40:01;97286.06;;;15.71;33.66
25350;BME280;13302;48.796;11.978;2023-05-25T06:42:49;97282.13;;;15.76;33.89
25350;BME280;13302;48.796;11.978;2023-05-25T06:45:54;97285.78;;;15.80;34.02
25350;BME280;13302;48.796;11.978;2023-05-25T06:48:41;97284.63;;;15.84;33.98
25350;BME280;13302;48.796;11.978;2023-05-25T06:51:28;97287.09;;;15.89;33.92
25350;BME280;13302;48.796;11.978;2023-05-25T06:54:17;97294.72;;;15.92;33.76
25350;BME280;13302;48.796;11.978;2023-05-25T06:57:05;97291.19;;;15.95;33.64
25350;BME280;13302;48.796;11.978;2023-05-25T06:59:52;97296.00;;;15.98;33.68
25350;BME280;13302;48.796;11.978;2023-05-25T07:02:39;97294.06;;;16.02;33.57
25350;BME280;13302;48.796;11.978;2023-05-25T07:05:26;97302.50;;;16.06;33.70
25350;BME280;13302;48.796;11.978;2023-05-25T07:08:13;97296.16;;;16.09;33.85
25350;BME280;13302;48.796;11.978;2023-05-25T07:11:00;97304.59;;;16.13;33.46
25350;BME280;13302;48.796;11.978;2023-05-25T07:13:47;97309.41;;;16.16;33.65
25350;BME280;13302;48.796;11.978;2023-05-25T07:16:34;97301.09;;;16.19;33.34
25350;BME280;13302;48.796;11.978;2023-05-25T07:19:21;97316.25;;;16.22;33.66
25350;BME280;13302;48.796;11.978;2023-05-25T07:22:09;97316.31;;;16.25;33.59
25350;BME280;13302;48.796;11.978;2023-05-25T07:24:56;97312.38;;;16.30;33.37
25350;BME280;13302;48.796;11.978;2023-05-25T07:27:47;97303.28;;;16.33;33.46
25350;BME280;13302;48.796;11.978;2023-05-25T07:30:34;97310.13;;;16.39;33.81
25350;BME280;13302;48.796;11.978;2023-05-25T07:33:21;97303.78;;;16.42;33.60
25350;BME280;13302;48.796;11.978;2023-05-25T07:36:08;97307.84;;;16.44;33.49
25350;BME280;13302;48.796;11.978;2023-05-25T07:38:57;97307.88;;;16.48;33.28
25350;BME280;13302;48.796;11.978;2023-05-25T07:41:44;97309.53;;;16.52;33.20
25350;BME280;13302;48.796;11.978;2023-05-25T07:44:31;97309.94;;;16.54;33.57
25350;BME280;13302;48.796;11.978;2023-05-25T07:47:18;97312.78;;;16.58;33.25
25350;BME280;13302;48.796;11.978;2023-05-25T07:50:05;97310.06;;;16.62;33.37
25350;BME280;13302;48.796;11.978;2023-05-25T07:52:52;97309.69;;;16.67;33.73
25350;BME280;13302;48.796;11.978;2023-05-25T07:55:39;97313.34;;;16.71;33.42
25350;BME280;13302;48.796;11.978;2023-05-25T07:58:27;97313.41;;;16.74;33.24
25350;BME280;13302;48.796;11.978;2023-05-25T08:01:14;97316.59;;;16.76;33.33
25350;BME280;13302;48.796;11.978;2023-05-25T08:04:01;97327.81;;;16.80;33.28
25350;BME280;13302;48.796;11.978;2023-05-25T08:06:48;97318.66;;;16.83;33.61
25350;BME280;13302;48.796;11.978;2023-05-25T08:09:35;97321.53;;;16.86;33.35
25350;BME280;13302;48.796;11.978;2023-05-25T08:12:22;97317.97;;;16.89;33.60
25350;BME280;13302;48.796;11.978;2023-05-25T08:15:29;97320.41;;;16.94;33.54
25350;BME280;13302;48.796;11.978;2023-05-25T08:18:17;97322.44;;;16.97;33.66
25350;BME280;13302;48.796;11.978;2023-05-25T08:21:05;97322.84;;;16.99;33.20
25350;BME280;13302;48.796;11.978;2023-05-25T08:23:52;97324.09;;;17.02;33.29
25350;BME280;13302;48.796;11.978;2023-05-25T08:26:39;97318.53;;;17.06;33.81
25350;BME280;13302;48.796;11.978;2023-05-25T08:29:40;97330.56;;;17.10;33.80
25350;BME280;13302;48.796;11.978;2023-05-25T08:32:27;97328.59;;;17.14;33.30
25350;BME280;13302;48.796;11.978;2023-05-25T08:35:14;97318.66;;;17.16;33.21
25350;BME280;13302;48.796;11.978;2023-05-25T08:38:03;97317.53;;;17.21;33.47
25350;BME280;13302;48.796;11.978;2023-05-25T08:41:19;97330.31;;;17.22;33.32
25350;BME280;13302;48.796;11.978;2023-05-25T08:44:10;97327.19;;;17.27;33.36
25350;BME280;13302;48.796;11.978;2023-05-25T08:46:58;97331.19;;;17.29;33.43
25350;BME280;13302;48.796;11.978;2023-05-25T08:49:50;97330.41;;;17.32;33.41
25350;BME280;13302;48.796;11.978;2023-05-25T08:52:43;97324.06;;;17.35;33.45
25350;BME280;13302;48.796;11.978;2023-05-25T08:55:32;97332.06;;;17.40;33.30
25350;BME280;13302;48.796;11.978;2023-05-25T08:58:30;97336.91;;;17.43;33.48
25350;BME280;13302;48.796;11.978;2023-05-25T09:01:20;97325.78;;;17.47;33.17
25350;BME280;13302;48.796;11.978;2023-05-25T09:04:09;97336.59;;;17.52;33.47
25350;BME280;13302;48.796;11.978;2023-05-25T09:07:00;97334.22;;;17.54;33.08
25350;BME280;13302;48.796;11.978;2023-05-25T09:09:56;97328.25;;;17.56;33.09
25350;BME280;13302;48.796;11.978;2023-05-25T09:12:45;97335.84;;;17.59;33.30
25350;BME280;13302;48.796;11.978;2023-05-25T09:15:32;97326.69;;;17.62;33.27
25350;BME280;13302;48.796;11.978;2023-05-25T09:18:19;97329.91;;;17.64;32.95
25350;BME280;13302;48.796;11.978;2023-05-25T09:21:07;97333.91;;;17.66;33.14
25350;BME280;13302;48.796;11.978;2023-05-25T09:23:54;97333.13;;;17.69;33.27
25350;BME280;13302;48.796;11.978;2023-05-25T09:26:41;97333.97;;;17.73;32.86
25350;BME280;13302;48.796;11.978;2023-05-25T09:29:32;97333.22;;;17.76;32.89
25350;BME280;13302;48.796;11.978;2023-05-25T09:32:19;97328.03;;;17.78;32.88
25350;BME280;13302;48.796;11.978;2023-05-25T09:35:08;97330.44;;;17.80;32.81
25350;BME280;13302;48.796;11.978;2023-05-25T09:37:55;97328.47;;;17.80;32.70
25350;BME280;13302;48.796;11.978;2023-05-25T09:40:43;97334.44;;;17.82;32.55
25350;BME280;13302;48.796;11.978;2023-05-25T09:43:31;97335.25;;;17.83;32.44
25350;BME280;13302;48.796;11.978;2023-05-25T09:46:25;97336.88;;;17.84;32.61
25350;BME280;13302;48.796;11.978;2023-05-25T09:49:12;97335.31;;;17.86;32.68
25350;BME280;13302;48.796;11.978;2023-05-25T09:51:59;97335.75;;;17.88;32.54
25350;BME280;13302;48.796;11.978;2023-05-25T09:54:48;97328.94;;;17.89;32.52
25350;BME280;13302;48.796;11.978;2023-05-25T09:57:35;97336.56;;;17.93;32.54
25350;BME280;13302;48.796;11.978;2023-05-25T10:00:22;97340.97;;;17.94;32.35
25350;BME280;13302;48.796;11.978;2023-05-25T10:03:10;97337.78;;;17.95;32.62
25350;BME280;13302;48.796;11.978;2023-05-25T10:06:01;97339.41;;;18.00;32.29
25350;BME280;13302;48.796;11.978;2023-05-25T10:08:49;97333.03;;;18.03;32.42
25350;BME280;13302;48.796;11.978;2023-05-25T10:11:37;97353.44;;;18.07;32.44
25350;BME280;13302;48.796;11.978;2023-05-25T10:14:26;97344.28;;;18.10;32.35
25350;BME280;13302;48.796;11.978;2023-05-25T10:17:22;97339.91;;;18.12;32.48
25350;BME280;13302;48.796;11.978;2023-05-25T10:20:10;97342.34;;;18.17;32.24
25350;BME280;13302;48.796;11.978;2023-05-25T10:23:10;97335.53;;;18.18;32.07
25350;BME280;13302;48.796;11.978;2023-05-25T10:25:59;97336.34;;;18.22;32.14
25350;BME280;13302;48.796;11.978;2023-05-25T10:28:50;97342.38;;;18.24;32.12
25350;BME280;13302;48.796;11.978;2023-05-25T10:31:38;97347.19;;;18.27;32.10
25350;BME280;13302;48.796;11.978;2023-05-25T10:34:26;97350.00;;;18.31;32.33
25350;BME280;13302;48.796;11.978;2023-05-25T10:37:14;97343.66;;;18.34;32.10
25350;BME280;13302;48.796;11.978;2023-05-25T10:40:02;97330.84;;;18.36;32.30
25350;BME280;13302;48.796;11.978;2023-05-25T10:42:49;97332.47;;;18.41;32.18
25350;BME280;13302;48.796;11.978;2023-05-25T10:45:37;97340.09;;;18.44;31.74
25350;BME280;13302;48.796;11.978;2023-05-25T10:48:34;97326.09;;;18.44;31.75
25350;BME280;13302;48.796;11.978;2023-05-25T10:51:35;97331.72;;;18.48;32.06
25350;BME280;13302;48.796;11.978;2023-05-25T10:54:30;97332.53;;;18.52;31.86
25350;BME280;13302;48.796;11.978;2023-05-25T10:57:23;97325.78;;;18.56;32.01
25350;BME280;13302;48.796;11.978;2023-05-25T11:00:12;97331.41;;;18.60;31.98
25350;BME280;13302;48.796;11.978;2023-05-25T11:03:00;97332.63;;;18.62;31.56
25350;BME280;13302;48.796;11.978;2023-05-25T11:05:49;97328.66;;;18.63;31.52
25350;BME280;13302;48.796;11.978;2023-05-25T11:08:58;97327.84;;;18.66;31.84
25350;BME280;13302;48.796;11.978;2023-05-25T11:14:33;97327.88;;;18.73;31.70
25350;BME280;13302;48.796;11.978;2023-05-25T11:17:23;97324.69;;;18.78;31.65
25350;BME280;13302;48.796;11.978;2023-05-25T11:20:22;97322.72;;;18.79;31.28
25350;BME280;13302;48.796;11.978;2023-05-25T11:23:22;97316.69;;;18.80;31.49
25350;BME280;13302;48.796;11.978;2023-05-25T11:26:19;97315.88;;;18.80;31.18
25350;BME280;13302;48.796;11.978;2023-05-25T11:29:13;97313.88;;;18.80;31.22
25350;BME280;13302;48.796;11.978;2023-05-25T11:32:00;97317.09;;;18.83;31.17
25350;BME280;13302;48.796;11.978;2023-05-25T11:34:51;97313.13;;;18.84;31.28
25350;BME280;13302;48.796;11.978;2023-05-25T11:37:38;97309.53;;;18.87;31.61
25350;BME280;13302;48.796;11.978;2023-05-25T11:40:30;97303.53;;;18.88;31.13
25350;BME280;13302;48.796;11.978;2023-05-25T11:43:18;97311.94;;;18.92;31.50
25350;BME280;13302;48.796;11.978;2023-05-25T11:46:08;97298.75;;;18.96;31.62
25350;BME280;13302;48.796;11.978;2023-05-25T11:48:56;97307.16;;;18.99;31.58
25350;BME280;13302;48.796;11.978;2023-05-25T11:51:43;97310.78;;;19.03;31.19
25350;BME280;13302;48.796;11.978;2023-05-25T11:54:30;97309.59;;;19.08;31.38
25350;BME280;13302;48.796;11.978;2023-05-25T11:57:21;97310.78;;;19.10;31.19
25350;BME280;13302;48.796;11.978;2023-05-25T12:00:11;97295.16;;;19.13;31.00
25350;BME280;13302;48.796;11.978;2023-05-25T12:02:59;97295.97;;;19.17;31.28
25350;BME280;13302;48.796;11.978;2023-05-25T12:05:46;97288.81;;;19.19;31.13
25350;BME280;13302;48.796;11.978;2023-05-25T12:08:34;97294.03;;;19.21;31.08
25350;BME280;13302;48.796;11.978;2023-05-25T12:11:29;97295.63;;;19.22;31.12
25350;BME280;13302;48.796;11.978;2023-05-25T12:14:16;97299.22;;;19.26;31.48
25350;BME280;13302;48.796;11.978;2023-05-25T12:17:04;97294.03;;;19.28;31.54
25350;BME280;13302;48.796;11.978;2023-05-25T12:19:52;97289.25;;;19.32;31.17
25350;BME280;13302;48.796;11.978;2023-05-25T12:22:39;97291.25;;;19.35;30.99
25350;BME280;13302;48.796;11.978;2023-05-25T12:25:27;97288.84;;;19.37;31.14
25350;BME280;13302;48.796;11.978;2023-05-25T12:28:28;97288.06;;;19.40;31.32
25350;BME280;13302;48.796;11.978;2023-05-25T12:31:22;97283.25;;;19.41;31.03
25350;BME280;13302;48.796;11.978;2023-05-25T12:34:12;97288.84;;;19.44;30.82
25350;BME280;13302;48.796;11.978;2023-05-25T12:36:59;97287.25;;;19.47;31.01
25350;BME280;13302;48.796;11.978;2023-05-25T12:39:47;97289.22;;;19.50;31.13
25350;BME280;13302;48.796;11.978;2023-05-25T12:42:34;97289.66;;;19.52;30.86
25350;BME280;13302;48.796;11.978;2023-05-25T12:45:22;97276.81;;;19.54;31.03
25350;BME280;13302;48.796;11.978;2023-05-25T12:48:09;97291.25;;;19.56;30.73
25350;BME280;13302;48.796;11.978;2023-05-25T12:50:57;97287.66;;;19.59;31.18
25350;BME280;13302;48.796;11.978;2023-05-25T12:53:50;97280.84;;;19.60;31.00
25350;BME280;13302;48.796;11.978;2023-05-25T12:56:56;97284.03;;;19.62;31.14
25350;BME280;13302;48.796;11.978;2023-05-25T12:59:45;97296.06;;;19.66;31.09
25350;BME280;13302;48.796;11.978;2023-05-25T13:02:32;97285.25;;;19.68;30.81
25350;BME280;13302;48.796;11.978;2023-05-25T13:05:26;97290.84;;;19.68;30.85
25350;BME280;13302;48.796;11.978;2023-05-25T13:08:15;97292.47;;;19.73;30.81
25350;BME280;13302;48.796;11.978;2023-05-25T13:11:02;97286.44;;;19.74;30.85
25350;BME280;13302;48.796;11.978;2023-05-25T13:13:50;97295.66;;;19.79;30.87
25350;BME280;13302;48.796;11.978;2023-05-25T13:16:39;97290.44;;;19.81;30.82
25350;BME280;13302;48.796;11.978;2023-05-25T13:19:26;97286.84;;;19.84;30.74
25350;BME280;13302;48.796;11.978;2023-05-25T13:22:13;97282.88;;;19.85;30.76
25350;BME280;13302;48.796;11.978;2023-05-25T13:25:00;97286.84;;;19.87;30.65
25350;BME280;13302;48.796;11.978;2023-05-25T13:27:49;97290.06;;;19.89;30.47
25350;BME280;13302;48.796;11.978;2023-05-25T13:30:36;97288.06;;;19.90;30.71
25350;BME280;13302;48.796;11.978;2023-05-25T13:33:23;97275.22;;;19.92;30.57
25350;BME280;13302;48.796;11.978;2023-05-25T13:36:10;97269.63;;;19.92;30.26
25350;BME280;13302;48.796;11.978;2023-05-25T13:38:57;97272.84;;;19.94;30.51
25350;BME280;13302;48.796;11.978;2023-05-25T13:41:45;97275.22;;;19.96;30.39
25350;BME280;13302;48.796;11.978;2023-05-25T13:44:32;97275.22;;;19.96;29.84
25350;BME280;13302;48.796;11.978;2023-05-25T13:47:19;97271.22;;;19.97;29.83
25350;BME280;13302;48.796;11.978;2023-05-25T13:50:06;97276.03;;;19.96;29.81
25350;BME280;13302;48.796;11.978;2023-05-25T13:52:54;97272.81;;;19.98;29.60
25350;BME280;13302;48.796;11.978;2023-05-25T13:55:41;97266.03;;;19.99;29.51
25350;BME280;13302;48.796;11.978;2023-05-25T13:58:28;97264.78;;;20.00;29.78
25350;BME280;13302;48.796;11.978;2023-05-25T14:01:15;97268.41;;;20.00;29.56
25350;BME280;13302;48.796;11.978;2023-05-25T14:04:03;97261.59;;;20.01;29.74
25350;BME280;13302;48.796;11.978;2023-05-25T14:06:50;97263.19;;;20.02;29.56
25350;BME280;13302;48.796;11.978;2023-05-25T14:09:37;97257.16;;;20.04;29.72
25350;BME280;13302;48.796;11.978;2023-05-25T14:12:24;97257.56;;;20.06;29.75
25350;BME280;13302;48.796;11.978;2023-05-25T14:15:11;97256.38;;;20.07;29.65
25350;BME280;13302;48.796;11.978;2023-05-25T14:17:58;97260.38;;;20.09;29.60
25350;BME280;13302;48.796;11.978;2023-05-25T14:20:45;97258.38;;;20.10;29.42
25350;BME280;13302;48.796;11.978;2023-05-25T14:23:33;97266.38;;;20.11;29.53
25350;BME280;13302;48.796;11.978;2023-05-25T14:26:19;97258.75;;;20.12;29.32
25350;BME280;13302;48.796;11.978;2023-05-25T14:29:07;97265.16;;;20.12;29.41
25350;BME280;13302;48.796;11.978;2023-05-25T14:31:57;97247.13;;;20.13;29.35
25350;BME280;13302;48.796;11.978;2023-05-25T14:34:44;97257.97;;;20.15;29.38
25350;BME280;13302;48.796;11.978;2023-05-25T14:37:31;97254.72;;;20.16;29.33
25350;BME280;13302;48.796;11.978;2023-05-25T14:40:18;97248.72;;;20.18;29.22
25350;BME280;13302;48.796;11.978;2023-05-25T14:43:07;97256.75;;;20.20;29.53
25350;BME280;13302;48.796;11.978;2023-05-25T14:45:54;97254.31;;;20.22;29.24
25350;BME280;13302;48.796;11.978;2023-05-25T14:48:41;97253.13;;;20.23;29.13
25350;BME280;13302;48.796;11.978;2023-05-25T14:51:28;97251.13;;;20.23;28.88